Patriot, Indiana
Current Conditions -  °F | °C
As of 2:52 AM on Sunday 23 Nov 2014 (Local Time) from KCVG Reporting Station
Overcast Overcast  
Wind Chill: 52°   Ceiling: 4800
Heat Index: 52°   Visibility: 10mi
Dew Point: 35°   Wind: 8mph
Humidity: 53%   Direction: 190°S
Pressure: 30.04"   Gusts: NA
Location:  38.84°N, 84.83°W
Report Text: KCVG 230752Z 19007KT 10SM OVC048 11/02 A3004 RMK AO2 SLP167 T01110017
Loading
Personal Weather Stations






























Interactive Weather Map New forecast layout! Learn more

10-Day Weather Forecast

Advertisements
Track Severe Weather on mobile